createdAt,value
2023-04-22T00:00:58.904Z,97781.55
2023-04-22T00:03:28.058Z,97779.84
2023-04-22T00:05:56.845Z,97778.29
2023-04-22T00:08:25.799Z,97776.13
2023-04-22T00:10:53.713Z,97776.52
2023-04-22T00:13:21.659Z,97779.50
2023-04-22T00:15:49.857Z,97777.38
2023-04-22T00:18:18.055Z,97779.11
2023-04-22T00:20:46.161Z,97777.69
2023-04-22T00:23:14.171Z,97774.48
2023-04-22T00:25:42.304Z,97772.61
2023-04-22T00:28:10.242Z,97774.32
2023-04-22T00:30:38.512Z,97769.69
2023-04-22T00:33:06.494Z,97768.96
2023-04-22T00:35:34.416Z,97767.40
2023-04-22T00:38:02.402Z,97769.58
2023-04-22T00:40:30.318Z,97764.88
2023-04-22T00:42:59.907Z,97767.05
2023-04-22T00:45:27.827Z,97768.83
2023-04-22T00:47:56.928Z,97764.13
2023-04-22T00:50:25.326Z,97763.96
2023-04-22T00:52:53.233Z,97767.36
2023-04-22T00:55:21.369Z,97768.27
2023-04-22T00:57:51.051Z,97763.30
2023-04-22T01:00:20.350Z,97765.98
2023-04-22T01:02:48.458Z,97768.06
2023-04-22T01:05:16.804Z,97768.18
2023-04-22T01:07:45.128Z,97766.16
2023-04-22T01:10:13.632Z,97768.09
2023-04-22T01:12:41.546Z,97769.05
2023-04-22T01:15:09.839Z,97769.42
2023-04-22T01:17:37.855Z,97766.32
2023-04-22T01:20:10.563Z,97769.46
2023-04-22T01:22:44.671Z,97765.63
2023-04-22T01:25:12.852Z,97768.98
2023-04-22T01:27:41.125Z,97769.95
2023-04-22T01:30:10.247Z,97769.71
2023-04-22T01:32:41.186Z,97767.12
2023-04-22T01:35:10.462Z,97768.86
2023-04-22T01:37:39.164Z,97768.70
2023-04-22T01:40:10.085Z,97764.09
2023-04-22T01:42:38.354Z,97766.66
2023-04-22T01:45:07.038Z,97769.70
2023-04-22T01:47:34.923Z,97767.42
2023-04-22T01:50:02.958Z,97768.58
2023-04-22T01:52:31.360Z,97768.24
2023-04-22T01:54:59.746Z,97769.09
2023-04-22T01:57:27.840Z,97770.63
2023-04-22T01:59:55.877Z,97767.77
2023-04-22T02:02:23.944Z,97763.86
2023-04-22T02:04:52.039Z,97765.12
2023-04-22T02:07:20.139Z,97769.01
2023-04-22T02:09:50.180Z,97768.00
2023-04-22T02:12:18.852Z,97763.39
2023-04-22T02:14:46.813Z,97765.55
2023-04-22T02:17:17.926Z,97765.70
2023-04-22T02:19:47.031Z,97761.13
2023-04-22T02:22:15.025Z,97761.41
2023-04-22T02:24:43.313Z,97761.41
2023-04-22T02:27:11.277Z,97763.63
2023-04-22T02:29:39.595Z,97765.16
2023-04-22T02:32:08.555Z,97765.17
2023-04-22T02:34:36.642Z,97764.64
2023-04-22T02:37:04.591Z,97768.05
2023-04-22T02:39:32.853Z,97770.39
2023-04-22T02:42:01.557Z,97768.23
2023-04-22T02:44:29.516Z,97769.25
2023-04-22T02:46:57.420Z,97767.63
2023-04-22T02:49:25.367Z,97767.71
2023-04-22T02:51:53.379Z,97765.24
2023-04-22T02:54:21.386Z,97764.45
2023-04-22T02:56:49.415Z,97764.00
2023-04-22T02:59:17.409Z,97767.34
2023-04-22T03:01:45.744Z,97768.52
2023-04-22T03:04:22.067Z,97765.77
2023-04-22T03:06:50.225Z,97765.44
2023-04-22T03:09:18.440Z,97762.46
2023-04-22T03:11:46.423Z,97765.80
2023-04-22T03:14:14.422Z,97766.66
2023-04-22T03:16:42.405Z,97768.73
2023-04-22T03:19:10.618Z,97769.66
2023-04-22T03:21:38.532Z,97769.73
2023-04-22T03:24:06.907Z,97769.45
2023-04-22T03:26:35.772Z,97767.19
2023-04-22T03:29:04.730Z,97771.48
2023-04-22T03:31:32.668Z,97767.84
2023-04-22T03:34:01.411Z,97768.39
2023-04-22T03:36:31.176Z,97769.56
2023-04-22T03:38:59.163Z,97768.45
2023-04-22T03:41:31.371Z,97767.35
2023-04-22T03:44:01.648Z,97767.98
2023-04-22T03:46:30.689Z,97768.13
2023-04-22T03:49:05.014Z,97772.58
2023-04-22T03:51:35.895Z,97769.36
2023-04-22T03:54:07.304Z,97769.12
2023-04-22T03:56:37.152Z,97772.20
2023-04-22T03:59:05.055Z,97777.02
2023-04-22T04:01:33.762Z,97775.34
2023-04-22T04:04:04.717Z,97776.05
2023-04-22T04:06:51.597Z,97775.60
2023-04-22T04:09:19.574Z,97778.61
2023-04-22T04:11:48.442Z,97777.82
2023-04-22T04:14:16.792Z,97781.22
2023-04-22T04:16:48.106Z,97775.92
2023-04-22T04:19:22.031Z,97778.27
2023-04-22T04:21:50.048Z,97777.00
2023-04-22T04:24:18.108Z,97776.73
2023-04-22T04:26:49.840Z,97777.98
2023-04-22T04:29:24.011Z,97779.27
2023-04-22T04:32:10.518Z,97780.96
2023-04-22T04:34:39.836Z,97785.47
2023-04-22T04:37:09.271Z,97783.09
2023-04-22T04:39:45.069Z,97780.08
2023-04-22T04:42:14.581Z,97779.17
2023-04-22T04:44:51.101Z,97782.23
2023-04-22T04:47:20.237Z,97782.16
2023-04-22T04:49:50.348Z,97785.33
2023-04-22T04:52:18.278Z,97786.58
2023-04-22T04:54:46.289Z,97783.90
2023-04-22T04:57:14.436Z,97781.45
2023-04-22T04:59:42.805Z,97789.41
2023-04-22T05:02:11.621Z,97784.64
2023-04-22T05:04:39.861Z,97786.87
2023-04-22T05:07:08.422Z,97787.48
2023-04-22T05:09:38.229Z,97792.24
2023-04-22T05:12:07.538Z,97790.27
2023-04-22T05:14:36.050Z,97790.93
2023-04-22T05:17:04.246Z,97787.62
2023-04-22T05:19:32.276Z,97786.07
2023-04-22T05:22:00.212Z,97787.52
2023-04-22T05:24:28.287Z,97790.09
2023-04-22T05:26:59.332Z,97791.92
2023-04-22T05:29:28.557Z,97794.16
2023-04-22T05:31:56.650Z,97791.25
2023-04-22T05:34:24.794Z,97793.09
2023-04-22T05:36:54.988Z,97794.20
2023-04-22T05:39:23.328Z,97795.11
2023-04-22T05:41:51.430Z,97797.38
2023-04-22T05:44:19.573Z,97794.75
2023-04-22T05:46:47.903Z,97790.67
2023-04-22T05:49:16.255Z,97794.56
2023-04-22T05:52:13.591Z,97785.92
2023-04-22T05:54:51.090Z,97785.19
2023-04-22T05:57:19.046Z,97787.09
2023-04-22T05:59:47.432Z,97787.29
2023-04-22T06:02:16.506Z,97790.07
2023-04-22T06:04:44.891Z,97792.67
2023-04-22T06:07:13.176Z,97792.61
2023-04-22T06:09:41.498Z,97793.48
2023-04-22T06:12:10.811Z,97795.14
2023-04-22T06:14:38.732Z,97795.09
2023-04-22T06:17:06.652Z,97796.48
2023-04-22T06:19:34.593Z,97798.80
2023-04-22T06:22:02.519Z,97800.10
2023-04-22T06:24:30.530Z,97801.05
2023-04-22T06:26:58.555Z,97801.34
2023-04-22T06:29:27.986Z,97803.30
2023-04-22T06:31:55.976Z,97800.83
2023-04-22T06:34:24.425Z,97801.45
2023-04-22T06:36:53.281Z,97802.02
2023-04-22T06:39:21.664Z,97795.95
2023-04-22T06:42:15.638Z,97792.38
2023-04-22T06:45:04.309Z,97795.14
2023-04-22T06:47:43.391Z,97795.70
2023-04-22T06:50:15.939Z,97797.48
2023-04-22T06:53:01.974Z,97797.77
2023-04-22T06:55:29.970Z,97795.36
2023-04-22T06:57:58.058Z,97792.60
2023-04-22T07:00:28.419Z,97791.79
2023-04-22T07:02:58.245Z,97791.39
2023-04-22T07:05:26.842Z,97792.88
2023-04-22T07:07:54.888Z,97789.39
2023-04-22T07:10:24.828Z,97794.16
2023-04-22T07:13:11.314Z,97793.54
2023-04-22T07:15:39.278Z,97792.96
2023-04-22T07:18:07.307Z,97793.88
2023-04-22T07:20:35.235Z,97792.04
2023-04-22T07:23:03.176Z,97790.06
2023-04-22T07:25:31.082Z,97790.14
2023-04-22T07:27:59.093Z,97790.05
2023-04-22T07:30:27.055Z,97793.53
2023-04-22T07:32:55.634Z,97790.86
2023-04-22T07:35:23.716Z,97793.57
2023-04-22T07:37:51.704Z,97793.21
2023-04-22T07:40:19.788Z,97795.67
2023-04-22T07:42:47.702Z,97793.77
2023-04-22T07:45:15.843Z,97794.04
2023-04-22T07:47:43.824Z,97790.39
2023-04-22T07:50:12.180Z,97789.17
2023-04-22T07:52:40.305Z,97793.13
2023-04-22T07:55:08.749Z,97792.46
2023-04-22T07:57:38.951Z,97791.42
2023-04-22T08:00:09.001Z,97790.48
2023-04-22T08:02:44.167Z,97788.45
2023-04-22T08:05:12.477Z,97788.33
2023-04-22T08:07:40.532Z,97787.84
2023-04-22T08:10:08.934Z,97787.29
2023-04-22T08:12:37.601Z,97784.13
2023-04-22T08:15:06.112Z,97786.02
2023-04-22T08:17:34.151Z,97787.95
2023-04-22T08:20:02.304Z,97792.22
2023-04-22T08:22:30.336Z,97794.14
2023-04-22T08:24:58.305Z,97793.45
2023-04-22T08:27:26.171Z,97796.35
2023-04-22T08:29:54.072Z,97793.86
2023-04-22T08:32:23.465Z,97789.04
2023-04-22T08:34:52.053Z,97790.30
2023-04-22T08:37:22.163Z,97788.17
2023-04-22T08:39:50.205Z,97786.44
2023-04-22T08:42:20.473Z,97789.24
2023-04-22T08:44:49.185Z,97784.21
2023-04-22T08:47:19.472Z,97784.21
2023-04-22T08:49:47.854Z,97784.09
2023-04-22T08:52:15.929Z,97786.24
2023-04-22T08:54:43.883Z,97785.34
2023-04-22T08:57:13.331Z,97784.57
2023-04-22T08:59:42.151Z,97784.90
2023-04-22T09:02:18.073Z,97785.71
2023-04-22T09:04:49.681Z,97782.78
2023-04-22T09:07:25.765Z,97779.47
2023-04-22T09:09:57.968Z,97779.07
2023-04-22T09:12:26.219Z,97777.61
2023-04-22T09:14:55.017Z,97777.54
2023-04-22T09:17:34.560Z,97777.77
2023-04-22T09:20:07.059Z,97781.73
2023-04-22T09:22:47.338Z,97779.86
2023-04-22T09:25:17.314Z,97781.41
2023-04-22T09:27:50.588Z,97777.14
2023-04-22T09:30:23.937Z,97775.66
2023-04-22T09:32:54.699Z,97773.52
2023-04-22T09:35:31.301Z,97769.92
2023-04-22T09:38:01.365Z,97769.02
2023-04-22T09:40:30.827Z,97763.23
2023-04-22T09:43:01.921Z,97763.10
2023-04-22T09:45:31.519Z,97756.84
2023-04-22T09:48:11.413Z,97756.23
2023-04-22T09:50:44.078Z,97756.58
2023-04-22T09:53:15.576Z,97754.86
2023-04-22T09:55:46.412Z,97754.52
2023-04-22T09:58:19.145Z,97752.10
2023-04-22T10:00:56.972Z,97751.42
2023-04-22T10:03:25.045Z,97749.91
2023-04-22T10:05:52.968Z,97746.52
2023-04-22T10:08:22.585Z,97747.20
2023-04-22T10:10:50.479Z,97741.05
2023-04-22T10:13:18.373Z,97744.84
2023-04-22T10:15:51.812Z,97740.64
2023-04-22T10:18:26.109Z,97742.43
2023-04-22T10:20:56.665Z,97735.34
2023-04-22T10:23:25.688Z,97734.06
2023-04-22T10:25:55.407Z,97730.36
2023-04-22T10:28:25.346Z,97734.96
2023-04-22T10:30:53.869Z,97735.38
2023-04-22T10:33:21.838Z,97734.81
2023-04-22T10:36:10.100Z,97727.50
2023-04-22T10:39:02.752Z,97725.63
2023-04-22T10:41:33.159Z,97724.06
2023-04-22T10:44:05.964Z,97724.70
2023-04-22T10:46:45.542Z,97722.00
2023-04-22T10:49:25.186Z,97726.30
2023-04-22T10:51:58.603Z,97722.07
2023-04-22T10:54:31.858Z,97718.83
2023-04-22T10:57:15.468Z,97720.08
2023-04-22T10:59:49.515Z,97719.61
2023-04-22T11:02:19.819Z,97716.27
2023-04-22T11:04:48.852Z,97715.27
2023-04-22T11:07:30.262Z,97715.52
2023-04-22T11:10:10.903Z,97709.28
2023-04-22T11:12:43.110Z,97706.88
2023-04-22T11:15:16.868Z,97707.97
2023-04-22T11:17:46.637Z,97704.20
2023-04-22T11:20:17.640Z,97699.41
2023-04-22T11:22:51.896Z,97699.10
2023-04-22T11:25:20.973Z,97694.22
2023-04-22T11:27:49.522Z,97694.88
2023-04-22T11:30:20.089Z,97695.31
2023-04-22T11:32:53.103Z,97694.07
2023-04-22T11:35:22.813Z,97691.15
2023-04-22T11:37:56.380Z,97687.13
2023-04-22T11:40:31.869Z,97691.17
2023-04-22T11:43:03.584Z,97686.58
2023-04-22T11:45:34.225Z,97688.21
2023-04-22T11:48:03.487Z,97682.80
2023-04-22T11:50:34.321Z,97681.15
2023-04-22T11:53:04.757Z,97675.14
2023-04-22T11:55:35.710Z,97684.60
2023-04-22T11:58:12.358Z,97676.42
2023-04-22T12:00:44.746Z,97674.84
2023-04-22T12:03:16.074Z,97673.34
2023-04-22T12:05:45.641Z,97675.64
2023-04-22T12:08:18.862Z,97678.98
2023-04-22T12:10:55.240Z,97675.14
2023-04-22T12:13:30.393Z,97675.52
2023-04-22T12:16:21.702Z,97668.83
2023-04-22T12:18:51.026Z,97670.08
2023-04-22T12:21:22.017Z,97661.77
2023-04-22T12:23:55.176Z,97662.42
2023-04-22T12:26:26.578Z,97663.21
2023-04-22T12:28:57.031Z,97657.70
2023-04-22T12:31:25.992Z,97658.37
2023-04-22T12:33:54.207Z,97658.79
2023-04-22T12:36:22.343Z,97657.52
2023-04-22T12:38:51.257Z,97661.69
2023-04-22T12:41:20.070Z,97660.59
2023-04-22T12:43:48.090Z,97660.21
2023-04-22T12:46:16.799Z,97656.67
2023-04-22T12:48:44.678Z,97652.48
2023-04-22T12:51:12.742Z,97648.48
2023-04-22T12:53:40.628Z,97646.60
2023-04-22T12:56:08.554Z,97637.00
2023-04-22T12:58:36.520Z,97630.06
2023-04-22T13:01:04.599Z,97634.06
2023-04-22T13:03:32.773Z,97636.83
2023-04-22T13:06:01.347Z,97634.05
2023-04-22T13:08:30.152Z,97631.29
2023-04-22T13:10:59.404Z,97624.62
2023-04-22T13:13:27.596Z,97619.89
2023-04-22T13:15:56.830Z,97618.41
2023-04-22T13:18:24.957Z,97619.98
2023-04-22T13:20:53.326Z,97622.65
2023-04-22T13:23:22.057Z,97621.40
2023-04-22T13:25:50.711Z,97620.02
2023-04-22T13:28:19.182Z,97615.89
2023-04-22T13:30:47.118Z,97611.27
2023-04-22T13:33:14.993Z,97611.67
2023-04-22T13:35:43.092Z,97609.44
2023-04-22T13:38:11.004Z,97604.84
2023-04-22T13:40:39.078Z,97603.65
2023-04-22T13:43:09.315Z,97602.73
2023-04-22T13:45:37.441Z,97601.71
2023-04-22T13:48:05.701Z,97603.11
2023-04-22T13:50:34.413Z,97603.03
2023-04-22T13:53:04.043Z,97605.55
2023-04-22T13:55:32.118Z,97598.60
2023-04-22T13:58:01.268Z,97593.94
2023-04-22T14:00:29.329Z,97594.47
2023-04-22T14:02:57.555Z,97594.17
2023-04-22T14:05:26.282Z,97596.97
2023-04-22T14:07:54.698Z,97594.27
2023-04-22T14:10:22.808Z,97594.09
2023-04-22T14:12:51.076Z,97596.27
2023-04-22T14:15:19.013Z,97599.85
2023-04-22T14:17:49.510Z,97596.30
2023-04-22T14:20:17.862Z,97591.50
2023-04-22T14:22:46.672Z,97584.95
2023-04-22T14:25:14.792Z,97587.94
2023-04-22T14:27:43.132Z,97587.27
2023-04-22T14:30:11.772Z,97584.20
2023-04-22T14:32:39.746Z,97588.77
2023-04-22T14:35:08.038Z,97584.76
2023-04-22T14:37:36.152Z,97586.75
2023-04-22T14:40:04.887Z,97581.23
2023-04-22T14:42:36.051Z,97579.17
2023-04-22T14:45:05.424Z,97577.70
2023-04-22T14:47:33.446Z,97576.19
2023-04-22T14:50:01.670Z,97575.27
2023-04-22T14:52:33.040Z,97573.88
2023-04-22T14:55:11.759Z,97569.48
2023-04-22T14:57:44.445Z,97571.19
2023-04-22T15:00:12.972Z,97569.22
2023-04-22T15:02:46.955Z,97571.26
2023-04-22T15:05:15.224Z,97565.77
2023-04-22T15:07:43.634Z,97565.24
2023-04-22T15:10:11.681Z,97564.63
2023-04-22T15:12:39.779Z,97569.71
2023-04-22T15:15:08.344Z,97570.48
2023-04-22T15:17:36.417Z,97570.70
2023-04-22T15:20:06.492Z,97566.96
2023-04-22T15:22:36.302Z,97564.15
2023-04-22T15:25:04.641Z,97561.52
2023-04-22T15:27:32.770Z,97561.61
2023-04-22T15:30:00.972Z,97561.36
2023-04-22T15:32:29.091Z,97557.81
2023-04-22T15:34:57.542Z,97557.08
2023-04-22T15:37:26.066Z,97547.38
2023-04-22T15:39:54.362Z,97562.93
2023-04-22T15:42:26.014Z,97559.17
2023-04-22T15:44:53.917Z,97557.91
2023-04-22T15:47:22.109Z,97561.61
2023-04-22T15:49:50.724Z,97557.34
2023-04-22T15:52:21.216Z,97556.71
2023-04-22T15:54:49.942Z,97553.84
2023-04-22T15:57:19.048Z,97551.73
2023-04-22T15:59:51.337Z,97552.22
2023-04-22T16:02:22.220Z,97552.63
2023-04-22T16:04:50.566Z,97552.34
2023-04-22T16:07:18.678Z,97548.88
2023-04-22T16:09:47.012Z,97553.70
2023-04-22T16:12:15.506Z,97551.52
2023-04-22T16:14:43.633Z,97555.23
2023-04-22T16:17:11.853Z,97554.23
2023-04-22T16:19:40.082Z,97552.71
2023-04-22T16:22:08.328Z,97548.13
2023-04-22T16:24:36.290Z,97547.81
2023-04-22T16:27:04.319Z,97550.03
2023-04-22T16:29:32.590Z,97551.50
2023-04-22T16:32:00.964Z,97552.60
2023-04-22T16:34:29.005Z,97553.89
2023-04-22T16:36:57.170Z,97555.61
2023-04-22T16:39:25.634Z,97550.98
2023-04-22T16:41:54.138Z,97553.92
2023-04-22T16:44:22.112Z,97550.52
2023-04-22T16:46:50.100Z,97550.23
2023-04-22T16:49:18.016Z,97551.48
2023-04-22T16:51:46.191Z,97549.50
2023-04-22T16:54:14.260Z,97550.67
2023-04-22T16:56:42.263Z,97550.98
2023-04-22T16:59:10.396Z,97549.14
2023-04-22T17:01:38.743Z,97550.02
2023-04-22T17:04:07.352Z,97552.55
2023-04-22T17:06:36.591Z,97551.88
2023-04-22T17:09:07.221Z,97551.86
2023-04-22T17:11:35.238Z,97554.16
2023-04-22T17:14:03.548Z,97553.88
2023-04-22T17:16:32.445Z,97552.92
2023-04-22T17:19:00.617Z,97551.02
2023-04-22T17:21:28.984Z,97552.75
2023-04-22T17:23:59.420Z,97551.52
2023-04-22T17:26:27.318Z,97551.91
2023-04-22T17:28:55.354Z,97555.20
2023-04-22T17:31:23.665Z,97555.80
2023-04-22T17:33:51.692Z,97555.70
2023-04-22T17:36:20.152Z,97556.04
2023-04-22T17:38:48.198Z,97559.16
2023-04-22T17:41:18.388Z,97561.08
2023-04-22T17:43:46.659Z,97560.98
2023-04-22T17:46:15.283Z,97562.59
2023-04-22T17:48:46.694Z,97565.23
2023-04-22T17:51:15.210Z,97566.11
2023-04-22T17:53:43.167Z,97570.66
2023-04-22T17:56:11.082Z,97571.05
2023-04-22T17:58:38.968Z,97572.22
2023-04-22T18:01:08.047Z,97576.77
2023-04-22T18:03:36.756Z,97573.83
2023-04-22T18:06:04.832Z,97575.51
2023-04-22T18:08:32.930Z,97578.09
2023-04-22T18:11:03.120Z,97578.04
2023-04-22T18:13:32.589Z,97580.91
2023-04-22T18:16:00.589Z,97582.05
2023-04-22T18:18:28.522Z,97586.86
2023-04-22T18:21:01.849Z,97584.86
2023-04-22T18:23:29.930Z,97583.61
2023-04-22T18:26:00.942Z,97587.73
2023-04-22T18:28:28.832Z,97590.83
2023-04-22T18:31:01.884Z,97590.27
2023-04-22T18:33:30.212Z,97590.58
2023-04-22T18:35:59.999Z,97592.39
2023-04-22T18:38:30.579Z,97593.02
2023-04-22T18:41:02.710Z,97590.27
2023-04-22T18:43:35.897Z,97591.09
2023-04-22T18:46:10.020Z,97596.14
2023-04-22T18:48:37.941Z,97594.79
2023-04-22T18:51:07.258Z,97597.13
2023-04-22T18:53:35.672Z,97591.48
2023-04-22T18:56:12.293Z,97593.19
2023-04-22T18:58:40.632Z,97593.17
2023-04-22T19:01:10.972Z,97592.61
2023-04-22T19:03:46.742Z,97593.92
2023-04-22T19:06:18.731Z,97595.17
2023-04-22T19:08:51.824Z,97599.02
2023-04-22T19:11:22.538Z,97602.94
2023-04-22T19:13:53.869Z,97601.09
2023-04-22T19:16:30.677Z,97597.37
2023-04-22T19:19:12.827Z,97595.05
2023-04-22T19:21:50.775Z,97594.39
2023-04-22T19:24:20.176Z,97594.39
2023-04-22T19:27:00.191Z,97593.95
2023-04-22T19:29:31.165Z,97591.13
2023-04-22T19:32:07.561Z,97588.46
2023-04-22T19:34:37.226Z,97594.94
2023-04-22T19:37:09.780Z,97595.69
2023-04-22T19:39:44.351Z,97581.56
2023-04-22T19:42:12.377Z,97593.84
2023-04-22T19:44:43.123Z,97589.80
2023-04-22T19:47:11.372Z,97593.36
2023-04-22T19:49:41.437Z,97589.62
2023-04-22T19:52:12.044Z,97590.44
2023-04-22T19:54:41.620Z,97588.80
2023-04-22T19:57:11.751Z,97586.39
2023-04-22T19:59:40.540Z,97585.71
2023-04-22T20:02:10.171Z,97586.42
2023-04-22T20:04:39.128Z,97587.88
2023-04-22T20:07:07.780Z,97587.52
2023-04-22T20:09:36.735Z,97583.45
2023-04-22T20:12:05.262Z,97586.23
2023-04-22T20:14:33.727Z,97585.43
2023-04-22T20:17:02.558Z,97581.60
2023-04-22T20:19:31.547Z,97581.19
2023-04-22T20:22:01.209Z,97582.61
2023-04-22T20:24:33.133Z,97584.14
2023-04-22T20:27:01.641Z,97583.35
2023-04-22T20:29:30.222Z,97580.86
2023-04-22T20:32:05.151Z,97577.24
2023-04-22T20:34:35.096Z,97579.25
2023-04-22T20:37:14.880Z,97581.01
2023-04-22T20:39:44.426Z,97578.93
2023-04-22T20:42:18.449Z,97575.09
2023-04-22T20:44:53.067Z,97578.17
2023-04-22T20:47:25.324Z,97574.48
2023-04-22T20:49:53.731Z,97574.55
2023-04-22T20:52:24.923Z,97575.35
2023-04-22T20:54:55.391Z,97571.67
2023-04-22T20:57:26.332Z,97569.20
2023-04-22T20:59:54.987Z,97554.28
2023-04-22T21:02:32.335Z,97566.06
2023-04-22T21:05:04.052Z,97564.20
2023-04-22T21:07:33.733Z,97565.95
2023-04-22T21:10:02.158Z,97563.64
2023-04-22T21:12:32.899Z,97567.77
2023-04-22T21:15:01.379Z,97563.79
2023-04-22T21:17:34.004Z,97562.19
2023-04-22T21:20:05.621Z,97562.77
2023-04-22T21:22:33.958Z,97562.47
2023-04-22T21:25:02.946Z,97561.74
2023-04-22T21:27:34.026Z,97560.76
2023-04-22T21:30:02.610Z,97560.92
2023-04-22T21:32:32.379Z,97557.59
2023-04-22T21:35:00.693Z,97558.70
2023-04-22T21:37:28.717Z,97568.16
2023-04-22T21:39:56.627Z,97566.73
2023-04-22T21:42:24.481Z,97566.55
2023-04-22T21:44:52.343Z,97565.76
2023-04-22T21:47:20.266Z,97569.31
2023-04-22T21:49:50.382Z,97564.73
2023-04-22T21:52:20.616Z,97565.98
2023-04-22T21:54:48.621Z,97566.29
2023-04-22T21:57:16.642Z,97566.25
2023-04-22T21:59:45.715Z,97563.07
2023-04-22T22:02:13.705Z,97562.37
2023-04-22T22:04:41.999Z,97563.39
2023-04-22T22:07:12.308Z,97563.70
2023-04-22T22:09:43.299Z,97564.17
2023-04-22T22:12:13.980Z,97563.16
2023-04-22T22:14:43.485Z,97562.19
2023-04-22T22:17:11.884Z,97559.34
2023-04-22T22:19:42.546Z,97559.75
2023-04-22T22:22:10.522Z,97557.69
2023-04-22T22:24:38.565Z,97556.73
2023-04-22T22:27:07.342Z,97558.63
2023-04-22T22:29:35.605Z,97555.02
2023-04-22T22:32:03.577Z,97556.15
2023-04-22T22:34:35.831Z,97553.73
2023-04-22T22:37:04.007Z,97558.54
2023-04-22T22:39:32.061Z,97558.99
2023-04-22T22:41:59.985Z,97561.71
2023-04-22T22:44:27.883Z,97557.16
2023-04-22T22:46:56.590Z,97557.64
2023-04-22T22:49:24.678Z,97558.23
2023-04-22T22:51:52.675Z,97554.10
2023-04-22T22:54:20.713Z,97554.28
2023-04-22T22:56:48.629Z,97549.73
2023-04-22T22:59:16.576Z,97553.46
2023-04-22T23:01:45.014Z,97553.77
2023-04-22T23:04:13.287Z,97556.05
2023-04-22T23:06:41.647Z,97552.83
2023-04-22T23:09:10.879Z,97550.53
2023-04-22T23:11:38.784Z,97549.91
2023-04-22T23:14:09.675Z,97551.36
2023-04-22T23:16:38.236Z,97550.36
2023-04-22T23:19:06.893Z,97550.15
2023-04-22T23:21:35.158Z,97552.21
2023-04-22T23:24:03.347Z,97552.05
2023-04-22T23:26:31.455Z,97548.64
2023-04-22T23:28:59.743Z,97546.83
2023-04-22T23:31:29.860Z,97547.41
2023-04-22T23:34:02.739Z,97549.90
2023-04-22T23:36:33.034Z,97549.05
2023-04-22T23:39:01.121Z,97548.11
2023-04-22T23:41:29.269Z,97549.41
2023-04-22T23:43:57.152Z,97548.14
2023-04-22T23:46:25.685Z,97545.96
2023-04-22T23:48:53.992Z,97547.59
2023-04-22T23:51:21.972Z,97544.70
2023-04-22T23:53:49.902Z,97542.49
2023-04-22T23:56:21.209Z,97543.38
2023-04-22T23:58:51.142Z,97539.59
